Weather at Üçırmak Garrison Helipad

Public forecast

Using degrees Celsius for public forecast. Weather courtesy of forecast.io.

Closest aviation weather report (METAR) to Üçırmak Garrison Helipad

Closest report is Hatay Airport, 24.9 nm (46.1 km) N.

2024/05/28 13:50 (retrieved 1 hour ago)

LTDA 281350Z 22024KT 9999 SCT040 28/10 Q1009 NOSIG

Closest aviation forecast (TAF) to Üçırmak Garrison Helipad

Forecast is more than 6 hours old.

Closest forecast is Hmeimim Air Base, 35.3 nm (65.5 km) SSW.

2024/05/28 06:00 (retrieved 9 hours ago)

TAF OSLK 280500Z 2806/2906 30010KT 6000 HZ SCT030 BKN100